Terminal Aerodrome Forecast
Issued by NWS

Home | Current Version | Previous Version | Text Only | Print | Product List | Glossary On
Versions: 1 2 3 4 5 6 7 8 9 10 11 12 13 14 15 16 17 18 19 20 21 22 23 24 25 26 27 28 29 30 31 32 33 34
000
FTAK31 PAFA 190522
TAFATA
TAF
PATA 190522Z 1906/2006 25006KT P6SM VCSH FEW060 SCT070 OVC090
     FM191600 29002KT 4SM -SHRA BR BKN007 OVC015
     FM191900 27003KT P6SM -SHRA BKN015 OVC025
     FM192000 VRB03KT P6SM VCSH OVC050=

USA.gov is the U.S. government's official web portal to all federal, state and local government web resources and services.